Time;durP1;ratioP1;P1;durP2;ratioP2;P2;SDS_P1;SDS_P2;PMS_P1;PMS_P2;Temp;Humidity;BMP_temperature;BMP_pressure;BME280_temperature;BME280_humidity;BME280_pressure;Samples;Min_cycle;Max_cycle;Signal;HPM_P1;HPM_P2
2022/12/23 00:06:55;;;;;;;18.70;12.50;;;;;;;3.73;92.98;97639.42;420692;1292;110796;-41
2022/12/23 00:17:02;;;;;;;17.20;11.40;;;;;;;3.72;93.14;97647.23;420728;1296;108583;-40
2022/12/23 00:27:27;;;;;;;15.70;9.10;;;;;;;3.78;93.44;97649.13;420799;1299;99281;-40
2022/12/23 00:37:40;;;;;;;12.50;9.40;;;;;;;3.85;93.48;97645.31;420713;1298;108104;-41
2022/12/23 00:58:13;;;;;;;23.70;14.20;;;;;;;3.95;93.68;97665.44;420759;1299;113008;-40
2022/12/23 01:08:20;;;;;;;17.20;11.00;;;;;;;3.97;93.74;97669.08;420725;1298;108547;-42
2022/12/23 01:18:28;;;;;;;21.10;14.80;;;;;;;4.01;93.95;97665.33;420737;1304;99352;-40
2022/12/23 01:28:37;;;;;;;18.50;13.60;;;;;;;4.05;93.90;97665.27;420777;1298;107761;-40
2022/12/23 01:38:45;;;;;;;26.40;15.90;;;;;;;4.10;93.92;97672.91;420825;1300;98020;-39
2022/12/23 01:48:53;;;;;;;41.10;18.80;;;;;;;4.05;94.04;97680.02;420809;1298;112264;-40
2022/12/23 01:59:03;;;;;;;32.30;16.90;;;;;;;3.95;94.28;97682.14;420766;1302;108439;-38
2022/12/23 02:09:18;;;;;;;25.50;16.00;;;;;;;3.91;94.20;97674.11;420795;1298;99220;-40
2022/12/23 02:19:24;;;;;;;23.50;15.20;;;;;;;3.97;94.27;97672.58;420887;1284;108504;-42
2022/12/23 02:29:45;;;;;;;15.60;11.40;;;;;;;4.08;94.51;97683.88;420976;1298;98614;-40
2022/12/23 02:39:54;;;;;;;22.80;15.30;;;;;;;4.17;94.45;97687.88;420092;1297;421123;-40
2022/12/23 02:50:00;;;;;;;;;;;;;;;4.19;94.46;97693.90;420335;1302;107861;-39
2022/12/23 03:00:09;;;;;;;23.50;16.60;;;;;;;4.13;94.43;97687.46;420286;1301;98833;-41
2022/12/23 03:10:23;;;;;;;23.60;15.00;;;;;;;4.09;94.42;97691.97;420252;1294;107812;-38
2022/12/23 03:20:34;;;;;;;21.50;15.50;;;;;;;4.04;94.36;97679.40;420303;1298;99137;-40
2022/12/23 03:30:46;;;;;;;27.80;19.80;;;;;;;3.88;94.16;97670.72;420292;1290;111724;-39
2022/12/23 03:51:01;;;;;;;24.10;16.50;;;;;;;3.46;94.10;97679.08;420262;1301;99129;-39
2022/12/23 04:01:10;;;;;;;25.10;15.90;;;;;;;3.28;94.14;97681.31;420232;1306;107304;-40
2022/12/23 04:11:17;;;;;;;26.10;17.60;;;;;;;3.15;94.33;97669.99;420202;1292;99249;-39
2022/12/23 04:21:24;;;;;;;25.70;15.90;;;;;;;3.07;94.37;97667.31;420316;1297;112181;-39
2022/12/23 04:31:31;;;;;;;24.60;16.70;;;;;;;3.00;94.36;97667.69;420294;1301;107542;-40
2022/12/23 04:41:38;;;;;;;29.70;18.60;;;;;;;2.95;94.43;97662.13;420313;1297;98522;-40
2022/12/23 04:51:46;;;;;;;32.90;18.70;;;;;;;2.87;94.34;97664.36;420386;1293;109380;-38
2022/12/23 05:01:54;;;;;;;31.70;19.30;;;;;;;2.79;94.34;97666.33;420214;1298;98379;-39
2022/12/23 05:12:02;;;;;;;34.10;22.90;;;;;;;2.71;94.24;97666.74;420344;1292;112106;-39
2022/12/23 05:22:09;;;;;;;33.30;20.90;;;;;;;2.68;94.48;97674.06;420318;1301;110063;-38
2022/12/23 05:32:16;;;;;;;39.00;21.80;;;;;;;2.67;94.50;97671.98;420363;1301;99242;-40
2022/12/23 05:42:23;;;;;;;39.80;24.10;;;;;;;2.66;94.56;97658.02;420336;1287;107818;-39
2022/12/23 05:52:30;;;;;;;35.90;21.70;;;;;;;2.61;94.45;97650.70;420438;1292;99238;-39
2022/12/23 06:02:37;;;;;;;34.30;21.50;;;;;;;2.59;94.60;97656.67;420177;1301;112313;-39
2022/12/23 06:22:51;;;;;;;38.10;22.90;;;;;;;2.80;95.08;97652.67;420356;1292;99233;-38
2022/12/23 06:32:58;;;;;;;33.30;22.00;;;;;;;2.94;95.34;97640.11;420328;1294;109322;-39
2022/12/23 06:43:04;;;;;;;27.10;17.30;;;;;;;3.11;95.48;97643.84;420308;1294;99233;-39
2022/12/23 06:53:12;;;;;;;30.00;18.40;;;;;;;3.29;95.67;97652.86;420213;1301;112832;-40
2022/12/23 07:03:19;;;;;;;28.20;19.10;;;;;;;3.44;95.70;97644.92;420406;1301;107062;-39
2022/12/23 07:13:27;;;;;;;33.40;22.20;;;;;;;3.57;95.88;97641.85;420405;1301;99239;-38
2022/12/23 07:23:34;;;;;;;35.10;24.10;;;;;;;3.72;96.01;97644.33;420269;1301;109379;-38
2022/12/23 07:33:41;;;;;;;27.00;18.10;;;;;;;3.91;96.08;97648.73;420315;1301;98859;-40
2022/12/23 07:43:48;;;;;;;30.60;19.20;;;;;;;4.11;96.10;97634.55;420338;1284;113752;-38
2022/12/23 07:53:56;;;;;;;25.60;17.20;;;;;;;4.32;96.32;97615.11;420194;1301;109418;-39
2022/12/23 08:04:02;;;;;;;26.70;17.70;;;;;;;4.50;96.38;97611.64;420192;1300;99345;-38
2022/12/23 08:14:09;;;;;;;22.70;14.70;;;;;;;4.64;96.32;97608.86;420302;1301;107738;-39
2022/12/23 08:24:15;;;;;;;20.70;13.00;;;;;;;4.78;96.46;97610.02;420295;1298;99237;-38
2022/12/23 08:34:23;;;;;;;21.40;14.30;;;;;;;4.93;96.44;97605.41;420267;1294;111201;-37
2022/12/23 08:44:31;;;;;;;21.50;12.90;;;;;;;5.03;96.45;97610.59;420206;1297;108346;-39
2022/12/23 08:54:38;;;;;;;21.00;12.70;;;;;;;5.10;96.42;97608.41;420391;1286;99233;-39
2022/12/23 09:04:46;;;;;;;23.30;13.30;;;;;;;5.24;96.36;97598.48;420334;1301;107830;-40
2022/12/23 09:14:53;;;;;;;19.20;11.80;;;;;;;5.41;96.43;97588.88;420221;1292;98851;-39
2022/12/23 09:25:01;;;;;;;19.10;11.90;;;;;;;5.50;96.26;97578.85;420288;1292;111245;-40
2022/12/23 09:45:16;;;;;;;12.90;8.50;;;;;;;5.96;96.29;97546.21;420377;1301;97956;-40
2022/12/23 09:55:22;;;;;;;17.10;12.10;;;;;;;6.14;96.41;97535.84;420383;1297;109191;-39
2022/12/23 10:05:30;;;;;;;23.60;13.40;;;;;;;6.13;96.04;97535.77;420252;1297;98615;-39
2022/12/23 10:15:35;;;;;;;16.20;10.20;;;;;;;6.07;95.89;97530.38;420283;1301;112252;-40
2022/12/23 10:25:46;;;;;;;16.20;10.00;;;;;;;6.03;96.04;97525.68;420351;1297;109648;-40
2022/12/23 10:35:54;;;;;;;17.90;9.70;;;;;;;6.06;96.02;97524.73;420234;1301;98424;-39
2022/12/23 10:45:59;;;;;;;16.30;10.30;;;;;;;6.09;96.16;97527.75;420292;1290;107985;-40
2022/12/23 10:56:06;;;;;;;19.40;12.00;;;;;;;6.12;95.94;97520.99;420280;1292;99345;-40
2022/12/23 11:06:15;;;;;;;21.20;12.70;;;;;;;6.15;95.92;97506.22;420278;1301;110061;-40
2022/12/23 11:16:22;;;;;;;19.90;11.70;;;;;;;6.15;95.94;97505.25;420277;1295;107813;-39
2022/12/23 11:26:28;;;;;;;15.50;10.00;;;;;;;6.15;95.83;97500.45;420305;1294;99374;-40
2022/12/23 11:36:36;;;;;;;15.70;10.80;;;;;;;6.13;95.92;97506.16;420284;1293;107673;-40
2022/12/23 11:46:43;;;;;;;15.20;10.70;;;;;;;6.27;95.84;97507.59;420217;1293;99113;-39
2022/12/23 11:56:48;;;;;;;14.70;10.30;;;;;;;6.48;95.92;97507.70;420436;1301;109920;-41
2022/12/23 12:06:55;;;;;;;15.60;10.50;;;;;;;6.50;95.92;97511.38;420305;1295;108507;-40
2022/12/23 12:17:01;;;;;;;11.50;7.70;;;;;;;6.51;95.84;97515.60;420227;1294;99229;-40
2022/12/23 12:27:11;;;;;;;18.00;8.90;;;;;;;6.50;95.67;97520.67;420272;1301;108012;-41
2022/12/23 12:37:17;;;;;;;13.20;8.80;;;;;;;6.51;95.58;97525.53;420304;1293;98871;-39
2022/12/23 12:47:23;;;;;;;14.90;9.20;;;;;;;6.41;95.57;97532.45;420383;1301;110690;-40
2022/12/23 13:08:00;;;;;;;14.20;10.60;;;;;;;6.14;95.45;97524.09;420364;1301;98079;-41
2022/12/23 13:18:09;;;;;;;14.60;11.20;;;;;;;6.07;95.53;97532.15;420211;1301;108410;-41
2022/12/23 13:28:27;;;;;;;20.00;12.30;;;;;;;6.11;95.61;97539.55;420316;1291;99230;-40
2022/12/23 13:38:36;;;;;;;14.80;10.70;;;;;;;6.08;95.58;97540.58;420244;1292;111206;-42
2022/12/23 13:48:48;;;;;;;16.20;10.10;;;;;;;6.01;95.59;97537.34;420221;1297;108805;-39
2022/12/23 13:58:55;;;;;;;19.20;10.40;;;;;;;5.99;95.73;97544.52;420341;1301;98835;-39
2022/12/23 14:09:03;;;;;;;14.20;10.30;;;;;;;5.98;95.75;97561.55;420301;1301;107504;-40
2022/12/23 14:19:31;;;;;;;16.20;10.80;;;;;;;5.92;95.77;97561.39;420297;1292;98428;-40
2022/12/23 14:29:49;;;;;;;18.70;12.40;;;;;;;5.88;95.80;97573.28;420290;1293;110512;-39
2022/12/23 14:39:58;;;;;;;14.80;10.10;;;;;;;5.84;95.86;97584.59;420032;1290;390798;-40
2022/12/23 14:50:34;;;;;;;26.30;13.70;;;;;;;5.80;95.89;97591.15;420289;1301;99223;-40
2022/12/23 15:00:46;;;;;;;18.60;13.30;;;;;;;5.74;95.96;97594.93;420355;1301;109558;-40
2022/12/23 15:10:55;;;;;;;31.70;16.00;;;;;;;5.69;95.79;97596.05;420541;1295;99260;-40
2022/12/23 15:21:01;;;;;;;27.30;17.20;;;;;;;5.69;96.25;97595.96;420316;1301;110589;-40
2022/12/23 15:31:16;;;;;;;21.10;16.20;;;;;;;5.66;96.04;97593.73;419883;1301;108132;-40
2022/12/23 15:41:23;;;;;;;27.20;16.20;;;;;;;5.65;96.14;97594.95;420383;1286;99241;-40
2022/12/23 15:51:29;;;;;;;31.10;22.40;;;;;;;5.63;96.12;97589.17;420331;1295;107269;-39
2022/12/23 16:01:57;;;;;;;36.50;22.80;;;;;;;5.64;96.11;97597.91;420257;1286;98471;-40
2022/12/23 16:12:17;;;;;;;34.40;18.00;;;;;;;5.65;96.09;97592.73;420294;1293;111682;-40
2022/12/23 16:22:26;;;;;;;33.90;19.80;;;;;;;5.66;96.20;97600.98;420309;1294;108230;-40
2022/12/23 16:32:41;;;;;;;34.30;19.60;;;;;;;5.67;96.10;97592.39;420375;1301;98039;-40
2022/12/23 16:42:48;;;;;;;30.40;18.60;;;;;;;5.65;96.25;97594.15;420393;1303;108483;-40
2022/12/23 16:52:55;;;;;;;39.60;22.40;;;;;;;5.61;96.16;97590.38;420296;1289;98433;-40
2022/12/23 17:03:03;;;;;;;42.90;24.00;;;;;;;5.59;96.25;97594.08;420384;1293;112330;-39
2022/12/23 17:13:11;;;;;;;36.10;21.90;;;;;;;5.60;96.25;97585.63;420370;1298;108482;-40
2022/12/23 17:23:23;;;;;;;45.20;25.10;;;;;;;5.61;96.39;97592.64;420474;1301;98058;-39
2022/12/23 17:33:32;;;;;;;38.50;20.60;;;;;;;5.62;96.26;97596.29;420418;1301;108333;-40
2022/12/23 17:43:40;;;;;;;43.70;24.70;;;;;;;5.62;96.33;97598.02;420450;1301;98290;-40
2022/12/23 17:53:48;;;;;;;42.20;24.40;;;;;;;5.59;96.33;97609.61;420396;1297;112057;-39
2022/12/23 18:14:16;;;;;;;44.60;25.10;;;;;;;5.59;96.21;97610.99;420430;1293;98840;-40
2022/12/23 18:24:23;;;;;;;38.30;22.80;;;;;;;5.58;96.34;97619.42;420336;1301;107560;-40
2022/12/23 18:34:30;;;;;;;32.40;21.60;;;;;;;5.56;96.30;97619.53;420360;1292;99270;-40
2022/12/23 18:44:38;;;;;;;35.80;25.50;;;;;;;5.59;96.53;97618.45;420348;1301;112022;-42
2022/12/23 18:54:45;;;;;;;32.90;20.40;;;;;;;5.57;96.39;97619.56;420341;1298;108184;-40
2022/12/23 19:14:59;;;;;;;35.00;25.00;;;;;;;5.51;96.37;97611.61;420351;1302;107686;-41
2022/12/23 19:25:06;;;;;;;31.80;21.10;;;;;;;5.49;96.47;97620.56;420311;1289;99258;-39
2022/12/23 19:35:11;;;;;;;32.30;21.90;;;;;;;5.48;96.52;97611.10;420339;1301;110758;-39
2022/12/23 19:45:18;;;;;;;38.20;24.60;;;;;;;5.48;96.52;97627.48;420402;1301;106535;-40
2022/12/23 19:55:25;;;;;;;41.50;24.70;;;;;;;5.49;96.56;97613.86;420184;1301;98067;-40
2022/12/23 20:05:32;;;;;;;42.20;26.60;;;;;;;5.45;96.48;97606.58;420257;1301;109443;-41
2022/12/23 20:15:40;;;;;;;49.10;33.40;;;;;;;5.41;96.57;97594.63;420246;1301;98323;-40
2022/12/23 20:25:47;;;;;;;46.50;27.20;;;;;;;5.30;96.43;97572.89;420285;1302;112016;-40
2022/12/23 20:35:54;;;;;;;39.70;22.50;;;;;;;5.16;96.44;97566.45;420292;1303;108003;-38
2022/12/23 20:46:02;;;;;;;29.60;20.10;;;;;;;5.03;96.53;97564.27;420360;1305;99227;-39
2022/12/23 20:56:13;;;;;;;39.00;25.10;;;;;;;4.97;96.60;97574.81;420160;1298;107550;-42
2022/12/23 21:06:21;;;;;;;43.20;27.40;;;;;;;4.98;96.69;97571.67;420258;1297;98854;-39
2022/12/23 21:16:28;;;;;;;48.20;26.90;;;;;;;5.01;96.81;97574.48;420362;1292;111547;-39
2022/12/23 21:26:36;;;;;;;41.90;25.00;;;;;;;5.01;96.83;97571.60;421561;1297;106950;-39
2022/12/23 21:36:44;;;;;;;51.50;30.90;;;;;;;4.98;96.84;97567.52;420304;1306;98851;-38
2022/12/23 21:56:55;;;;;;;46.90;32.00;;;;;;;4.96;96.82;97570.19;420303;1292;98053;-40
2022/12/23 22:07:02;;;;;;;41.80;25.70;;;;;;;4.97;96.86;97568.91;420372;1303;111145;-39
2022/12/23 22:17:09;;;;;;;49.60;29.30;;;;;;;4.98;96.92;97560.55;420305;1302;107983;-40
2022/12/23 22:27:16;;;;;;;48.80;26.30;;;;;;;5.01;96.99;97553.67;420467;1297;98829;-41
2022/12/23 22:37:23;;;;;;;37.10;23.20;;;;;;;5.07;97.10;97544.23;420223;1302;108608;-40
2022/12/23 22:47:30;;;;;;;48.80;26.50;;;;;;;5.12;97.25;97539.09;420137;1299;101568;-40
2022/12/23 22:57:38;;;;;;;36.70;23.80;;;;;;;5.14;97.16;97529.61;420250;1290;110807;-41
2022/12/23 23:07:45;;;;;;;38.40;23.80;;;;;;;5.17;97.05;97521.66;420115;1306;108326;-42
2022/12/23 23:17:52;;;;;;;32.80;22.30;;;;;;;5.22;97.14;97505.30;420267;1303;99345;-40
2022/12/23 23:27:59;;;;;;;40.20;24.10;;;;;;;5.21;97.15;97509.95;420124;1303;108717;-39
2022/12/23 23:38:07;;;;;;;28.10;20.40;;;;;;;5.22;97.21;97498.70;420252;1297;99252;-40
2022/12/23 23:48:15;;;;;;;34.50;21.60;;;;;;;5.20;97.20;97481.58;420286;1292;111752;-39
2022/12/23 23:58:22;;;;;;;31.50;20.40;;;;;;;5.17;97.19;97473.29;420218;1301;107837;-40
